sensor_id;sensor_type;location;lat;lon;timestamp;P1;durP1;ratioP1;P2;durP2;ratioP2
57325;SDS011;43161;50.950;18.224;2024-02-26T00:01:49;21.90;;;8.50;;
57325;SDS011;43161;50.950;18.224;2024-02-26T00:04:14;20.40;;;8.50;;
57325;SDS011;43161;50.950;18.224;2024-02-26T00:06:40;16.20;;;7.40;;
57325;SDS011;43161;50.950;18.224;2024-02-26T00:09:07;20.30;;;8.40;;
57325;SDS011;43161;50.950;18.224;2024-02-26T00:11:35;21.20;;;8.40;;
57325;SDS011;43161;50.950;18.224;2024-02-26T00:14:02;18.00;;;8.20;;
57325;SDS011;43161;50.950;18.224;2024-02-26T00:16:28;24.60;;;9.00;;
57325;SDS011;43161;50.950;18.224;2024-02-26T00:18:54;19.50;;;9.20;;
57325;SDS011;43161;50.950;18.224;2024-02-26T00:21:19;20.90;;;8.60;;
57325;SDS011;43161;50.950;18.224;2024-02-26T00:23:45;21.10;;;8.10;;
57325;SDS011;43161;50.950;18.224;2024-02-26T00:26:10;22.00;;;11.30;;
57325;SDS011;43161;50.950;18.224;2024-02-26T00:28:36;25.20;;;14.80;;
57325;SDS011;43161;50.950;18.224;2024-02-26T00:31:02;23.30;;;14.90;;
57325;SDS011;43161;50.950;18.224;2024-02-26T00:33:28;23.30;;;10.60;;
57325;SDS011;43161;50.950;18.224;2024-02-26T00:35:53;21.40;;;10.60;;
57325;SDS011;43161;50.950;18.224;2024-02-26T00:38:19;23.60;;;8.60;;
57325;SDS011;43161;50.950;18.224;2024-02-26T00:40:45;19.40;;;8.20;;
57325;SDS011;43161;50.950;18.224;2024-02-26T00:43:11;21.40;;;9.10;;
57325;SDS011;43161;50.950;18.224;2024-02-26T00:45:36;21.70;;;10.80;;
57325;SDS011;43161;50.950;18.224;2024-02-26T00:48:02;20.80;;;8.90;;
57325;SDS011;43161;50.950;18.224;2024-02-26T00:50:30;20.90;;;8.50;;
57325;SDS011;43161;50.950;18.224;2024-02-26T00:52:56;21.50;;;9.20;;
57325;SDS011;43161;50.950;18.224;2024-02-26T00:55:22;20.30;;;9.00;;
57325;SDS011;43161;50.950;18.224;2024-02-26T00:57:47;21.80;;;9.50;;
57325;SDS011;43161;50.950;18.224;2024-02-26T01:00:13;23.30;;;9.10;;
57325;SDS011;43161;50.950;18.224;2024-02-26T01:02:39;24.10;;;10.00;;
57325;SDS011;43161;50.950;18.224;2024-02-26T01:05:07;22.90;;;10.00;;
57325;SDS011;43161;50.950;18.224;2024-02-26T01:07:34;21.90;;;9.80;;
57325;SDS011;43161;50.950;18.224;2024-02-26T01:10:01;23.50;;;9.70;;
57325;SDS011;43161;50.950;18.224;2024-02-26T01:12:27;22.70;;;9.90;;
57325;SDS011;43161;50.950;18.224;2024-02-26T01:14:53;20.40;;;9.60;;
57325;SDS011;43161;50.950;18.224;2024-02-26T01:17:18;21.70;;;9.10;;
57325;SDS011;43161;50.950;18.224;2024-02-26T01:19:44;23.10;;;9.40;;
57325;SDS011;43161;50.950;18.224;2024-02-26T01:22:10;23.80;;;10.30;;
57325;SDS011;43161;50.950;18.224;2024-02-26T01:24:35;22.80;;;9.60;;
57325;SDS011;43161;50.950;18.224;2024-02-26T01:27:01;21.60;;;10.40;;
57325;SDS011;43161;50.950;18.224;2024-02-26T01:29:26;23.90;;;10.30;;
57325;SDS011;43161;50.950;18.224;2024-02-26T01:31:52;28.60;;;10.20;;
57325;SDS011;43161;50.950;18.224;2024-02-26T01:34:18;27.50;;;11.30;;
57325;SDS011;43161;50.950;18.224;2024-02-26T01:36:44;25.60;;;10.50;;
57325;SDS011;43161;50.950;18.224;2024-02-26T01:39:09;25.20;;;11.60;;
57325;SDS011;43161;50.950;18.224;2024-02-26T01:41:38;27.40;;;11.90;;
57325;SDS011;43161;50.950;18.224;2024-02-26T01:44:04;26.80;;;13.10;;
57325;SDS011;43161;50.950;18.224;2024-02-26T01:46:30;29.10;;;13.50;;
57325;SDS011;43161;50.950;18.224;2024-02-26T01:48:58;26.20;;;12.00;;
57325;SDS011;43161;50.950;18.224;2024-02-26T01:51:24;27.30;;;13.50;;
57325;SDS011;43161;50.950;18.224;2024-02-26T01:53:50;25.80;;;12.10;;
57325;SDS011;43161;50.950;18.224;2024-02-26T01:56:16;30.60;;;12.80;;
57325;SDS011;43161;50.950;18.224;2024-02-26T01:58:42;28.70;;;13.80;;
57325;SDS011;43161;50.950;18.224;2024-02-26T02:01:08;27.10;;;12.30;;
57325;SDS011;43161;50.950;18.224;2024-02-26T02:03:35;26.60;;;12.20;;
57325;SDS011;43161;50.950;18.224;2024-02-26T02:06:01;26.50;;;13.70;;
57325;SDS011;43161;50.950;18.224;2024-02-26T02:08:27;26.10;;;12.50;;
57325;SDS011;43161;50.950;18.224;2024-02-26T02:10:53;26.30;;;12.20;;
57325;SDS011;43161;50.950;18.224;2024-02-26T02:13:18;27.80;;;12.70;;
57325;SDS011;43161;50.950;18.224;2024-02-26T02:15:44;25.30;;;12.60;;
57325;SDS011;43161;50.950;18.224;2024-02-26T02:18:09;27.70;;;12.40;;
57325;SDS011;43161;50.950;18.224;2024-02-26T02:20:35;27.60;;;11.80;;
57325;SDS011;43161;50.950;18.224;2024-02-26T02:23:01;25.10;;;11.80;;
57325;SDS011;43161;50.950;18.224;2024-02-26T02:25:27;25.10;;;12.70;;
57325;SDS011;43161;50.950;18.224;2024-02-26T02:27:56;29.20;;;12.70;;
57325;SDS011;43161;50.950;18.224;2024-02-26T02:30:26;26.80;;;13.10;;
57325;SDS011;43161;50.950;18.224;2024-02-26T02:32:53;29.40;;;12.50;;
57325;SDS011;43161;50.950;18.224;2024-02-26T02:35:19;27.00;;;13.30;;
57325;SDS011;43161;50.950;18.224;2024-02-26T02:37:44;28.60;;;13.80;;
57325;SDS011;43161;50.950;18.224;2024-02-26T02:40:10;25.40;;;13.40;;
57325;SDS011;43161;50.950;18.224;2024-02-26T02:42:35;29.70;;;15.00;;
57325;SDS011;43161;50.950;18.224;2024-02-26T02:45:01;28.80;;;14.30;;
57325;SDS011;43161;50.950;18.224;2024-02-26T02:47:26;27.40;;;13.90;;
57325;SDS011;43161;50.950;18.224;2024-02-26T02:49:52;26.20;;;13.60;;
57325;SDS011;43161;50.950;18.224;2024-02-26T02:52:17;26.90;;;13.50;;
57325;SDS011;43161;50.950;18.224;2024-02-26T02:54:43;28.10;;;13.80;;
57325;SDS011;43161;50.950;18.224;2024-02-26T02:57:08;28.60;;;14.00;;
57325;SDS011;43161;50.950;18.224;2024-02-26T02:59:35;29.60;;;15.80;;
57325;SDS011;43161;50.950;18.224;2024-02-26T03:02:01;26.70;;;15.10;;
57325;SDS011;43161;50.950;18.224;2024-02-26T03:04:26;29.00;;;13.90;;
57325;SDS011;43161;50.950;18.224;2024-02-26T03:06:52;29.40;;;13.30;;
57325;SDS011;43161;50.950;18.224;2024-02-26T03:09:17;29.60;;;14.50;;
57325;SDS011;43161;50.950;18.224;2024-02-26T03:11:43;29.50;;;14.60;;
57325;SDS011;43161;50.950;18.224;2024-02-26T03:14:08;29.20;;;13.40;;
57325;SDS011;43161;50.950;18.224;2024-02-26T03:16:35;28.10;;;13.60;;
57325;SDS011;43161;50.950;18.224;2024-02-26T03:19:00;25.40;;;12.70;;
57325;SDS011;43161;50.950;18.224;2024-02-26T03:21:26;28.70;;;12.70;;
57325;SDS011;43161;50.950;18.224;2024-02-26T03:23:52;29.40;;;15.10;;
57325;SDS011;43161;50.950;18.224;2024-02-26T03:26:18;29.80;;;13.80;;
57325;SDS011;43161;50.950;18.224;2024-02-26T03:28:44;38.10;;;13.60;;
57325;SDS011;43161;50.950;18.224;2024-02-26T03:31:09;27.60;;;13.20;;
57325;SDS011;43161;50.950;18.224;2024-02-26T03:33:36;26.60;;;13.50;;
57325;SDS011;43161;50.950;18.224;2024-02-26T03:36:01;29.20;;;14.30;;
57325;SDS011;43161;50.950;18.224;2024-02-26T03:38:28;30.00;;;14.20;;
57325;SDS011;43161;50.950;18.224;2024-02-26T03:40:54;27.80;;;13.40;;
57325;SDS011;43161;50.950;18.224;2024-02-26T03:43:21;26.60;;;13.50;;
57325;SDS011;43161;50.950;18.224;2024-02-26T03:45:46;28.40;;;13.60;;
57325;SDS011;43161;50.950;18.224;2024-02-26T03:48:12;25.10;;;11.90;;
57325;SDS011;43161;50.950;18.224;2024-02-26T03:50:38;26.10;;;12.70;;
57325;SDS011;43161;50.950;18.224;2024-02-26T03:53:03;24.90;;;12.10;;
57325;SDS011;43161;50.950;18.224;2024-02-26T03:55:29;26.20;;;12.70;;
57325;SDS011;43161;50.950;18.224;2024-02-26T03:57:54;34.60;;;13.80;;
57325;SDS011;43161;50.950;18.224;2024-02-26T04:00:20;26.90;;;13.30;;
57325;SDS011;43161;50.950;18.224;2024-02-26T04:02:46;27.50;;;13.00;;
57325;SDS011;43161;50.950;18.224;2024-02-26T04:05:12;25.60;;;13.10;;
57325;SDS011;43161;50.950;18.224;2024-02-26T04:07:38;32.80;;;19.70;;
57325;SDS011;43161;50.950;18.224;2024-02-26T04:10:08;30.90;;;18.30;;
57325;SDS011;43161;50.950;18.224;2024-02-26T04:12:40;42.70;;;35.30;;
57325;SDS011;43161;50.950;18.224;2024-02-26T04:15:07;32.90;;;15.30;;
57325;SDS011;43161;50.950;18.224;2024-02-26T04:17:35;25.10;;;13.50;;
57325;SDS011;43161;50.950;18.224;2024-02-26T04:20:01;24.50;;;12.90;;
57325;SDS011;43161;50.950;18.224;2024-02-26T04:22:28;26.00;;;12.50;;
57325;SDS011;43161;50.950;18.224;2024-02-26T04:24:53;23.70;;;11.50;;
57325;SDS011;43161;50.950;18.224;2024-02-26T04:27:19;23.90;;;11.80;;
57325;SDS011;43161;50.950;18.224;2024-02-26T04:29:44;22.20;;;11.30;;
57325;SDS011;43161;50.950;18.224;2024-02-26T04:32:10;23.90;;;13.40;;
57325;SDS011;43161;50.950;18.224;2024-02-26T04:34:35;26.10;;;13.40;;
57325;SDS011;43161;50.950;18.224;2024-02-26T04:37:01;27.70;;;14.20;;
57325;SDS011;43161;50.950;18.224;2024-02-26T04:39:26;24.00;;;12.20;;
57325;SDS011;43161;50.950;18.224;2024-02-26T04:41:52;24.40;;;12.90;;
57325;SDS011;43161;50.950;18.224;2024-02-26T04:44:17;26.70;;;12.40;;
57325;SDS011;43161;50.950;18.224;2024-02-26T04:46:43;23.20;;;11.90;;
57325;SDS011;43161;50.950;18.224;2024-02-26T04:49:08;22.00;;;11.50;;
57325;SDS011;43161;50.950;18.224;2024-02-26T04:51:34;23.80;;;12.90;;
57325;SDS011;43161;50.950;18.224;2024-02-26T04:53:59;21.90;;;11.30;;
57325;SDS011;43161;50.950;18.224;2024-02-26T04:56:25;18.30;;;10.80;;
57325;SDS011;43161;50.950;18.224;2024-02-26T04:58:50;20.80;;;10.50;;
57325;SDS011;43161;50.950;18.224;2024-02-26T05:01:16;25.30;;;11.00;;
57325;SDS011;43161;50.950;18.224;2024-02-26T05:03:42;22.90;;;10.30;;
57325;SDS011;43161;50.950;18.224;2024-02-26T05:06:08;19.40;;;10.30;;
57325;SDS011;43161;50.950;18.224;2024-02-26T05:08:34;21.20;;;9.80;;
57325;SDS011;43161;50.950;18.224;2024-02-26T05:11:01;19.30;;;10.00;;
57325;SDS011;43161;50.950;18.224;2024-02-26T05:13:28;19.80;;;9.60;;
57325;SDS011;43161;50.950;18.224;2024-02-26T05:15:54;19.40;;;9.60;;
57325;SDS011;43161;50.950;18.224;2024-02-26T05:18:20;21.40;;;11.20;;
57325;SDS011;43161;50.950;18.224;2024-02-26T05:20:45;18.60;;;9.40;;
57325;SDS011;43161;50.950;18.224;2024-02-26T05:23:11;18.80;;;9.00;;
57325;SDS011;43161;50.950;18.224;2024-02-26T05:25:36;19.90;;;10.00;;
57325;SDS011;43161;50.950;18.224;2024-02-26T05:28:02;19.20;;;9.80;;
57325;SDS011;43161;50.950;18.224;2024-02-26T05:30:28;20.40;;;10.10;;
57325;SDS011;43161;50.950;18.224;2024-02-26T05:32:54;20.00;;;10.50;;
57325;SDS011;43161;50.950;18.224;2024-02-26T05:35:19;23.90;;;10.40;;
57325;SDS011;43161;50.950;18.224;2024-02-26T05:37:45;20.10;;;9.80;;
57325;SDS011;43161;50.950;18.224;2024-02-26T05:40:10;19.40;;;8.60;;
57325;SDS011;43161;50.950;18.224;2024-02-26T05:42:36;19.60;;;10.00;;
57325;SDS011;43161;50.950;18.224;2024-02-26T05:45:02;18.70;;;8.50;;
57325;SDS011;43161;50.950;18.224;2024-02-26T05:47:34;19.00;;;8.90;;
57325;SDS011;43161;50.950;18.224;2024-02-26T05:50:00;20.60;;;8.80;;
57325;SDS011;43161;50.950;18.224;2024-02-26T05:52:26;22.10;;;11.10;;
57325;SDS011;43161;50.950;18.224;2024-02-26T05:54:53;20.80;;;10.40;;
57325;SDS011;43161;50.950;18.224;2024-02-26T05:57:19;21.20;;;9.60;;
57325;SDS011;43161;50.950;18.224;2024-02-26T05:59:45;17.70;;;9.30;;
57325;SDS011;43161;50.950;18.224;2024-02-26T06:02:10;19.80;;;9.10;;
57325;SDS011;43161;50.950;18.224;2024-02-26T06:04:36;24.10;;;12.40;;
57325;SDS011;43161;50.950;18.224;2024-02-26T06:07:02;20.40;;;9.00;;
57325;SDS011;43161;50.950;18.224;2024-02-26T06:09:27;19.80;;;10.00;;
57325;SDS011;43161;50.950;18.224;2024-02-26T06:11:53;21.70;;;10.80;;
57325;SDS011;43161;50.950;18.224;2024-02-26T06:14:19;24.60;;;11.60;;
57325;SDS011;43161;50.950;18.224;2024-02-26T06:16:45;24.90;;;12.90;;
57325;SDS011;43161;50.950;18.224;2024-02-26T06:19:12;24.50;;;12.40;;
57325;SDS011;43161;50.950;18.224;2024-02-26T06:21:37;23.10;;;11.40;;
57325;SDS011;43161;50.950;18.224;2024-02-26T06:24:03;24.00;;;11.50;;
57325;SDS011;43161;50.950;18.224;2024-02-26T06:26:28;21.20;;;10.50;;
57325;SDS011;43161;50.950;18.224;2024-02-26T06:28:54;23.90;;;11.50;;
57325;SDS011;43161;50.950;18.224;2024-02-26T06:31:21;21.30;;;10.10;;
57325;SDS011;43161;50.950;18.224;2024-02-26T06:33:48;20.80;;;10.30;;
57325;SDS011;43161;50.950;18.224;2024-02-26T06:36:15;21.90;;;11.40;;
57325;SDS011;43161;50.950;18.224;2024-02-26T06:38:41;20.70;;;10.50;;
57325;SDS011;43161;50.950;18.224;2024-02-26T06:41:06;20.70;;;11.10;;
57325;SDS011;43161;50.950;18.224;2024-02-26T06:43:32;21.50;;;11.30;;
57325;SDS011;43161;50.950;18.224;2024-02-26T06:45:57;18.60;;;10.00;;
57325;SDS011;43161;50.950;18.224;2024-02-26T06:48:23;18.20;;;8.80;;
57325;SDS011;43161;50.950;18.224;2024-02-26T06:50:49;18.70;;;8.90;;
57325;SDS011;43161;50.950;18.224;2024-02-26T06:53:15;18.30;;;8.70;;
57325;SDS011;43161;50.950;18.224;2024-02-26T06:55:41;21.90;;;10.50;;
57325;SDS011;43161;50.950;18.224;2024-02-26T06:58:08;19.30;;;9.90;;
57325;SDS011;43161;50.950;18.224;2024-02-26T07:00:33;18.70;;;9.00;;
57325;SDS011;43161;50.950;18.224;2024-02-26T07:02:59;16.60;;;8.90;;
57325;SDS011;43161;50.950;18.224;2024-02-26T07:05:24;17.60;;;9.10;;
57325;SDS011;43161;50.950;18.224;2024-02-26T07:07:50;16.80;;;8.00;;
57325;SDS011;43161;50.950;18.224;2024-02-26T07:10:16;17.30;;;7.80;;
57325;SDS011;43161;50.950;18.224;2024-02-26T07:12:41;19.00;;;7.70;;
57325;SDS011;43161;50.950;18.224;2024-02-26T07:15:09;16.90;;;8.00;;
57325;SDS011;43161;50.950;18.224;2024-02-26T07:17:35;18.00;;;8.10;;
57325;SDS011;43161;50.950;18.224;2024-02-26T07:20:01;16.80;;;9.40;;
57325;SDS011;43161;50.950;18.224;2024-02-26T07:22:26;15.60;;;7.50;;
57325;SDS011;43161;50.950;18.224;2024-02-26T07:24:52;17.40;;;8.00;;
57325;SDS011;43161;50.950;18.224;2024-02-26T07:27:18;16.50;;;7.10;;
57325;SDS011;43161;50.950;18.224;2024-02-26T07:29:44;19.10;;;7.20;;
57325;SDS011;43161;50.950;18.224;2024-02-26T07:32:09;20.50;;;10.60;;
57325;SDS011;43161;50.950;18.224;2024-02-26T07:34:35;24.70;;;12.40;;
57325;SDS011;43161;50.950;18.224;2024-02-26T07:37:02;19.70;;;10.80;;
57325;SDS011;43161;50.950;18.224;2024-02-26T07:39:28;18.90;;;10.00;;
57325;SDS011;43161;50.950;18.224;2024-02-26T07:41:54;22.90;;;10.80;;
57325;SDS011;43161;50.950;18.224;2024-02-26T07:44:19;20.70;;;11.00;;
57325;SDS011;43161;50.950;18.224;2024-02-26T07:46:45;26.70;;;15.60;;
57325;SDS011;43161;50.950;18.224;2024-02-26T07:49:10;30.40;;;16.00;;
57325;SDS011;43161;50.950;18.224;2024-02-26T07:51:36;24.10;;;11.40;;
57325;SDS011;43161;50.950;18.224;2024-02-26T07:54:01;26.30;;;13.90;;
57325;SDS011;43161;50.950;18.224;2024-02-26T07:56:27;24.30;;;12.00;;
57325;SDS011;43161;50.950;18.224;2024-02-26T07:58:52;26.00;;;12.70;;
57325;SDS011;43161;50.950;18.224;2024-02-26T08:01:18;23.80;;;11.00;;
57325;SDS011;43161;50.950;18.224;2024-02-26T08:03:44;20.90;;;10.90;;
57325;SDS011;43161;50.950;18.224;2024-02-26T08:06:09;23.60;;;11.20;;
57325;SDS011;43161;50.950;18.224;2024-02-26T08:08:35;24.20;;;11.20;;
57325;SDS011;43161;50.950;18.224;2024-02-26T08:11:00;23.80;;;10.50;;
57325;SDS011;43161;50.950;18.224;2024-02-26T08:13:26;22.30;;;11.00;;
57325;SDS011;43161;50.950;18.224;2024-02-26T08:15:52;23.80;;;10.90;;
57325;SDS011;43161;50.950;18.224;2024-02-26T08:18:17;22.80;;;9.70;;
57325;SDS011;43161;50.950;18.224;2024-02-26T08:20:44;22.70;;;11.30;;
57325;SDS011;43161;50.950;18.224;2024-02-26T08:23:10;21.70;;;10.40;;
57325;SDS011;43161;50.950;18.224;2024-02-26T08:25:36;24.60;;;10.60;;
57325;SDS011;43161;50.950;18.224;2024-02-26T08:28:01;22.50;;;10.30;;
57325;SDS011;43161;50.950;18.224;2024-02-26T08:30:27;22.50;;;11.20;;
57325;SDS011;43161;50.950;18.224;2024-02-26T08:32:52;19.60;;;9.50;;
57325;SDS011;43161;50.950;18.224;2024-02-26T08:35:19;18.60;;;9.20;;
57325;SDS011;43161;50.950;18.224;2024-02-26T08:37:45;20.70;;;9.60;;
57325;SDS011;43161;50.950;18.224;2024-02-26T08:40:11;23.40;;;9.40;;
57325;SDS011;43161;50.950;18.224;2024-02-26T08:42:37;20.90;;;12.80;;
57325;SDS011;43161;50.950;18.224;2024-02-26T08:45:03;18.80;;;10.00;;
57325;SDS011;43161;50.950;18.224;2024-02-26T08:47:28;18.60;;;9.20;;
57325;SDS011;43161;50.950;18.224;2024-02-26T08:49:54;20.60;;;10.00;;
57325;SDS011;43161;50.950;18.224;2024-02-26T08:52:19;19.20;;;9.50;;
57325;SDS011;43161;50.950;18.224;2024-02-26T08:54:47;16.40;;;8.40;;
57325;SDS011;43161;50.950;18.224;2024-02-26T08:57:12;15.90;;;7.70;;
57325;SDS011;43161;50.950;18.224;2024-02-26T08:59:38;17.40;;;8.10;;
57325;SDS011;43161;50.950;18.224;2024-02-26T09:02:03;17.60;;;9.00;;
57325;SDS011;43161;50.950;18.224;2024-02-26T09:04:29;17.60;;;9.10;;
57325;SDS011;43161;50.950;18.224;2024-02-26T09:06:54;19.60;;;9.20;;
57325;SDS011;43161;50.950;18.224;2024-02-26T09:09:20;13.60;;;5.50;;
57325;SDS011;43161;50.950;18.224;2024-02-26T09:11:47;14.40;;;6.30;;
57325;SDS011;43161;50.950;18.224;2024-02-26T09:14:16;12.70;;;5.50;;
57325;SDS011;43161;50.950;18.224;2024-02-26T09:16:43;14.10;;;5.30;;
57325;SDS011;43161;50.950;18.224;2024-02-26T09:19:08;15.40;;;6.00;;
57325;SDS011;43161;50.950;18.224;2024-02-26T09:21:34;12.60;;;5.70;;
57325;SDS011;43161;50.950;18.224;2024-02-26T09:23:59;12.70;;;6.90;;
57325;SDS011;43161;50.950;18.224;2024-02-26T09:26:25;11.10;;;4.90;;
57325;SDS011;43161;50.950;18.224;2024-02-26T09:28:51;15.30;;;7.60;;
57325;SDS011;43161;50.950;18.224;2024-02-26T09:31:17;16.00;;;6.30;;
57325;SDS011;43161;50.950;18.224;2024-02-26T09:33:43;16.10;;;7.40;;
57325;SDS011;43161;50.950;18.224;2024-02-26T09:36:08;14.70;;;6.40;;
57325;SDS011;43161;50.950;18.224;2024-02-26T09:38:36;14.70;;;5.90;;
57325;SDS011;43161;50.950;18.224;2024-02-26T09:41:06;10.90;;;4.30;;
57325;SDS011;43161;50.950;18.224;2024-02-26T09:43:35;10.00;;;3.20;;
57325;SDS011;43161;50.950;18.224;2024-02-26T09:46:06;9.60;;;3.50;;
57325;SDS011;43161;50.950;18.224;2024-02-26T09:48:31;10.80;;;4.20;;
57325;SDS011;43161;50.950;18.224;2024-02-26T09:50:57;9.40;;;2.90;;
57325;SDS011;43161;50.950;18.224;2024-02-26T09:53:23;8.10;;;2.70;;
57325;SDS011;43161;50.950;18.224;2024-02-26T09:55:49;7.30;;;2.40;;
57325;SDS011;43161;50.950;18.224;2024-02-26T09:58:14;8.80;;;2.70;;
57325;SDS011;43161;50.950;18.224;2024-02-26T10:00:45;7.90;;;2.20;;
57325;SDS011;43161;50.950;18.224;2024-02-26T10:03:13;8.90;;;2.50;;
57325;SDS011;43161;50.950;18.224;2024-02-26T10:05:41;6.80;;;2.40;;
57325;SDS011;43161;50.950;18.224;2024-02-26T10:08:08;7.10;;;2.40;;
57325;SDS011;43161;50.950;18.224;2024-02-26T10:10:34;7.40;;;2.30;;
57325;SDS011;43161;50.950;18.224;2024-02-26T10:13:00;8.40;;;2.30;;
57325;SDS011;43161;50.950;18.224;2024-02-26T10:15:26;9.80;;;2.60;;
57325;SDS011;43161;50.950;18.224;2024-02-26T10:17:52;6.70;;;2.10;;
57325;SDS011;43161;50.950;18.224;2024-02-26T10:20:18;8.10;;;2.50;;
57325;SDS011;43161;50.950;18.224;2024-02-26T10:22:47;13.10;;;4.80;;
57325;SDS011;43161;50.950;18.224;2024-02-26T10:25:12;12.90;;;4.10;;
57325;SDS011;43161;50.950;18.224;2024-02-26T10:27:42;9.40;;;2.80;;
57325;SDS011;43161;50.950;18.224;2024-02-26T10:32:51;9.00;;;2.60;;
57325;SDS011;43161;50.950;18.224;2024-02-26T10:35:17;11.60;;;2.50;;
57325;SDS011;43161;50.950;18.224;2024-02-26T10:37:43;9.20;;;2.50;;
57325;SDS011;43161;50.950;18.224;2024-02-26T10:40:10;7.40;;;2.10;;
57325;SDS011;43161;50.950;18.224;2024-02-26T10:42:36;8.30;;;2.60;;
57325;SDS011;43161;50.950;18.224;2024-02-26T10:45:02;7.70;;;2.10;;
57325;SDS011;43161;50.950;18.224;2024-02-26T10:47:29;10.70;;;2.60;;
57325;SDS011;43161;50.950;18.224;2024-02-26T10:49:55;8.70;;;2.50;;
57325;SDS011;43161;50.950;18.224;2024-02-26T10:52:21;11.00;;;2.60;;
57325;SDS011;43161;50.950;18.224;2024-02-26T10:54:50;7.50;;;2.30;;
57325;SDS011;43161;50.950;18.224;2024-02-26T10:57:19;9.30;;;2.80;;
57325;SDS011;43161;50.950;18.224;2024-02-26T10:59:45;11.10;;;4.40;;
57325;SDS011;43161;50.950;18.224;2024-02-26T11:02:11;11.30;;;4.10;;
57325;SDS011;43161;50.950;18.224;2024-02-26T11:04:38;12.10;;;3.80;;
57325;SDS011;43161;50.950;18.224;2024-02-26T11:07:04;16.20;;;4.60;;
57325;SDS011;43161;50.950;18.224;2024-02-26T11:09:29;12.30;;;3.60;;
57325;SDS011;43161;50.950;18.224;2024-02-26T11:11:56;10.20;;;3.50;;
57325;SDS011;43161;50.950;18.224;2024-02-26T11:14:22;11.30;;;3.40;;
57325;SDS011;43161;50.950;18.224;2024-02-26T11:16:51;10.00;;;3.50;;
57325;SDS011;43161;50.950;18.224;2024-02-26T11:19:17;11.20;;;4.20;;
57325;SDS011;43161;50.950;18.224;2024-02-26T11:21:44;10.60;;;3.60;;
57325;SDS011;43161;50.950;18.224;2024-02-26T11:24:12;8.70;;;2.90;;
57325;SDS011;43161;50.950;18.224;2024-02-26T11:26:43;12.60;;;4.50;;
57325;SDS011;43161;50.950;18.224;2024-02-26T11:29:13;9.80;;;3.10;;
57325;SDS011;43161;50.950;18.224;2024-02-26T11:31:42;11.70;;;3.40;;
57325;SDS011;43161;50.950;18.224;2024-02-26T11:34:08;10.40;;;3.70;;
57325;SDS011;43161;50.950;18.224;2024-02-26T11:36:34;11.50;;;3.50;;
57325;SDS011;43161;50.950;18.224;2024-02-26T11:39:02;8.70;;;2.60;;
57325;SDS011;43161;50.950;18.224;2024-02-26T11:41:30;9.70;;;2.70;;
57325;SDS011;43161;50.950;18.224;2024-02-26T11:44:00;11.60;;;4.00;;
57325;SDS011;43161;50.950;18.224;2024-02-26T11:46:27;11.30;;;3.50;;
57325;SDS011;43161;50.950;18.224;2024-02-26T11:49:01;10.80;;;3.20;;
57325;SDS011;43161;50.950;18.224;2024-02-26T11:51:54;13.30;;;3.70;;
57325;SDS011;43161;50.950;18.224;2024-02-26T11:59:55;8.50;;;2.30;;
57325;SDS011;43161;50.950;18.224;2024-02-26T12:02:50;12.70;;;4.50;;
57325;SDS011;43161;50.950;18.224;2024-02-26T12:05:23;11.70;;;3.80;;
57325;SDS011;43161;50.950;18.224;2024-02-26T12:07:52;12.40;;;4.10;;
57325;SDS011;43161;50.950;18.224;2024-02-26T12:13:08;8.60;;;2.60;;
57325;SDS011;43161;50.950;18.224;2024-02-26T12:15:38;10.10;;;2.70;;
57325;SDS011;43161;50.950;18.224;2024-02-26T12:18:06;8.50;;;2.10;;
57325;SDS011;43161;50.950;18.224;2024-02-26T12:20:33;7.20;;;2.10;;
57325;SDS011;43161;50.950;18.224;2024-02-26T12:23:01;6.80;;;2.00;;
57325;SDS011;43161;50.950;18.224;2024-02-26T12:25:30;6.70;;;2.00;;
57325;SDS011;43161;50.950;18.224;2024-02-26T12:27:56;5.80;;;1.80;;
57325;SDS011;43161;50.950;18.224;2024-02-26T12:30:22;6.90;;;1.80;;
57325;SDS011;43161;50.950;18.224;2024-02-26T12:32:49;6.20;;;1.80;;
57325;SDS011;43161;50.950;18.224;2024-02-26T12:35:16;7.50;;;1.90;;
57325;SDS011;43161;50.950;18.224;2024-02-26T12:37:42;7.40;;;1.90;;
57325;SDS011;43161;50.950;18.224;2024-02-26T12:40:08;8.10;;;1.90;;
57325;SDS011;43161;50.950;18.224;2024-02-26T12:42:37;7.30;;;1.90;;
57325;SDS011;43161;50.950;18.224;2024-02-26T12:45:07;12.70;;;4.60;;
57325;SDS011;43161;50.950;18.224;2024-02-26T12:47:40;7.80;;;2.20;;
57325;SDS011;43161;50.950;18.224;2024-02-26T12:50:07;6.80;;;2.10;;
57325;SDS011;43161;50.950;18.224;2024-02-26T12:52:34;12.80;;;3.80;;
57325;SDS011;43161;50.950;18.224;2024-02-26T12:55:01;11.00;;;3.50;;
57325;SDS011;43161;50.950;18.224;2024-02-26T12:57:31;9.00;;;2.90;;
57325;SDS011;43161;50.950;18.224;2024-02-26T12:59:57;8.70;;;2.60;;
57325;SDS011;43161;50.950;18.224;2024-02-26T13:02:24;10.40;;;3.00;;
57325;SDS011;43161;50.950;18.224;2024-02-26T13:04:50;9.90;;;3.30;;
57325;SDS011;43161;50.950;18.224;2024-02-26T13:07:16;7.90;;;2.50;;
57325;SDS011;43161;50.950;18.224;2024-02-26T13:09:42;9.00;;;2.90;;
57325;SDS011;43161;50.950;18.224;2024-02-26T13:12:08;10.90;;;3.80;;
57325;SDS011;43161;50.950;18.224;2024-02-26T13:14:34;9.00;;;2.70;;
57325;SDS011;43161;50.950;18.224;2024-02-26T13:17:00;7.90;;;2.20;;
57325;SDS011;43161;50.950;18.224;2024-02-26T13:19:26;8.50;;;2.60;;
57325;SDS011;43161;50.950;18.224;2024-02-26T13:21:53;8.20;;;2.50;;
57325;SDS011;43161;50.950;18.224;2024-02-26T13:24:19;11.40;;;3.30;;
57325;SDS011;43161;50.950;18.224;2024-02-26T13:26:45;10.60;;;3.20;;
57325;SDS011;43161;50.950;18.224;2024-02-26T13:29:19;10.10;;;3.40;;
57325;SDS011;43161;50.950;18.224;2024-02-26T13:31:45;10.40;;;3.00;;
57325;SDS011;43161;50.950;18.224;2024-02-26T13:34:22;9.90;;;3.00;;
57325;SDS011;43161;50.950;18.224;2024-02-26T13:36:52;10.50;;;3.30;;
57325;SDS011;43161;50.950;18.224;2024-02-26T13:39:24;11.60;;;3.50;;
57325;SDS011;43161;50.950;18.224;2024-02-26T13:41:51;9.10;;;2.60;;
57325;SDS011;43161;50.950;18.224;2024-02-26T13:44:17;9.50;;;2.70;;
57325;SDS011;43161;50.950;18.224;2024-02-26T13:46:43;10.10;;;3.40;;
57325;SDS011;43161;50.950;18.224;2024-02-26T13:49:09;9.60;;;3.00;;
57325;SDS011;43161;50.950;18.224;2024-02-26T13:51:36;11.00;;;3.20;;
57325;SDS011;43161;50.950;18.224;2024-02-26T13:54:02;9.40;;;2.80;;
57325;SDS011;43161;50.950;18.224;2024-02-26T13:56:29;9.70;;;2.40;;
57325;SDS011;43161;50.950;18.224;2024-02-26T13:58:54;9.20;;;2.30;;
57325;SDS011;43161;50.950;18.224;2024-02-26T14:01:20;19.30;;;8.20;;
57325;SDS011;43161;50.950;18.224;2024-02-26T14:03:45;8.30;;;2.60;;
57325;SDS011;43161;50.950;18.224;2024-02-26T14:06:11;15.90;;;7.10;;
57325;SDS011;43161;50.950;18.224;2024-02-26T14:08:36;10.00;;;3.90;;
57325;SDS011;43161;50.950;18.224;2024-02-26T14:11:02;8.70;;;2.70;;
57325;SDS011;43161;50.950;18.224;2024-02-26T14:13:28;8.10;;;1.90;;
57325;SDS011;43161;50.950;18.224;2024-02-26T14:15:53;6.80;;;2.10;;
57325;SDS011;43161;50.950;18.224;2024-02-26T14:18:19;8.50;;;2.20;;
57325;SDS011;43161;50.950;18.224;2024-02-26T14:20:44;9.90;;;3.00;;
57325;SDS011;43161;50.950;18.224;2024-02-26T14:23:10;12.70;;;3.70;;
57325;SDS011;43161;50.950;18.224;2024-02-26T14:25:36;11.40;;;3.80;;